sensor_id;sensor_type;location;lat;lon;timestamp;temperature;humidity
24744;DHT22;12844;52.110;5.548;2023-04-21T10:01:36;20.20;50.40
24744;DHT22;12844;52.110;5.548;2023-04-21T10:04:03;20.20;50.80
24744;DHT22;12844;52.110;5.548;2023-04-21T10:06:29;20.00;50.90
24744;DHT22;12844;52.110;5.548;2023-04-21T10:08:56;20.10;50.90
24744;DHT22;12844;52.110;5.548;2023-04-21T10:11:22;20.20;50.80
24744;DHT22;12844;52.110;5.548;2023-04-21T10:13:48;20.50;50.70
24744;DHT22;12844;52.110;5.548;2023-04-21T10:16:16;20.80;50.00
24744;DHT22;12844;52.110;5.548;2023-04-21T10:18:43;20.70;49.80
24744;DHT22;12844;52.110;5.548;2023-04-21T13:30:24;19.60;52.00
24744;DHT22;12844;52.110;5.548;2023-04-21T13:32:50;19.50;52.00
24744;DHT22;12844;52.110;5.548;2023-04-21T13:35:15;19.50;51.90
24744;DHT22;12844;52.110;5.548;2023-04-21T13:37:41;19.50;52.00
24744;DHT22;12844;52.110;5.548;2023-04-21T13:40:08;19.50;52.00
24744;DHT22;12844;52.110;5.548;2023-04-21T13:42:37;19.50;52.00
24744;DHT22;12844;52.110;5.548;2023-04-21T13:45:03;19.50;52.10
24744;DHT22;12844;52.110;5.548;2023-04-21T13:47:31;19.50;52.00
24744;DHT22;12844;52.110;5.548;2023-04-21T13:49:57;19.50;52.00
24744;DHT22;12844;52.110;5.548;2023-04-21T13:52:22;19.50;52.10
24744;DHT22;12844;52.110;5.548;2023-04-21T13:54:48;19.50;52.20
24744;DHT22;12844;52.110;5.548;2023-04-21T13:57:13;19.50;52.20
24744;DHT22;12844;52.110;5.548;2023-04-21T13:59:39;19.50;52.10
24744;DHT22;12844;52.110;5.548;2023-04-21T14:02:06;19.50;52.10
24744;DHT22;12844;52.110;5.548;2023-04-21T14:04:32;19.50;52.10
24744;DHT22;12844;52.110;5.548;2023-04-21T14:06:57;19.50;52.10
24744;DHT22;12844;52.110;5.548;2023-04-21T14:09:23;19.50;52.10
24744;DHT22;12844;52.110;5.548;2023-04-21T14:11:49;19.50;52.10
24744;DHT22;12844;52.110;5.548;2023-04-21T14:14:15;19.40;52.10
24744;DHT22;12844;52.110;5.548;2023-04-21T14:16:41;19.40;52.10
24744;DHT22;12844;52.110;5.548;2023-04-21T14:19:06;19.50;52.10
24744;DHT22;12844;52.110;5.548;2023-04-21T14:21:32;19.50;52.10
24744;DHT22;12844;52.110;5.548;2023-04-21T14:23:58;19.40;52.00
24744;DHT22;12844;52.110;5.548;2023-04-21T14:26:23;19.50;52.10
24744;DHT22;12844;52.110;5.548;2023-04-21T14:28:49;19.40;52.10
24744;DHT22;12844;52.110;5.548;2023-04-21T14:31:15;19.40;52.00
24744;DHT22;12844;52.110;5.548;2023-04-21T14:33:40;19.50;52.00
24744;DHT22;12844;52.110;5.548;2023-04-21T14:36:06;19.50;52.10
24744;DHT22;12844;52.110;5.548;2023-04-21T14:38:35;19.40;52.00
24744;DHT22;12844;52.110;5.548;2023-04-21T14:41:00;19.40;52.30
24744;DHT22;12844;52.110;5.548;2023-04-21T14:43:26;19.50;52.10
24744;DHT22;12844;52.110;5.548;2023-04-21T14:45:52;19.40;52.10
24744;DHT22;12844;52.110;5.548;2023-04-21T14:48:17;19.50;52.10
24744;DHT22;12844;52.110;5.548;2023-04-21T14:50:43;19.40;52.10
24744;DHT22;12844;52.110;5.548;2023-04-21T14:53:08;19.50;52.00
24744;DHT22;12844;52.110;5.548;2023-04-21T14:55:34;19.50;52.00
24744;DHT22;12844;52.110;5.548;2023-04-21T14:58:00;19.40;52.70
24744;DHT22;12844;52.110;5.548;2023-04-21T15:00:25;19.40;52.10
24744;DHT22;12844;52.110;5.548;2023-04-21T15:02:51;19.40;52.10
24744;DHT22;12844;52.110;5.548;2023-04-21T15:05:17;19.40;52.10
24744;DHT22;12844;52.110;5.548;2023-04-21T15:07:43;19.40;52.20
24744;DHT22;12844;52.110;5.548;2023-04-21T15:10:09;19.30;52.20
24744;DHT22;12844;52.110;5.548;2023-04-21T15:12:36;19.40;52.20
24744;DHT22;12844;52.110;5.548;2023-04-21T15:15:02;19.40;52.20
24744;DHT22;12844;52.110;5.548;2023-04-21T15:17:28;19.30;52.10
24744;DHT22;12844;52.110;5.548;2023-04-21T15:19:53;19.40;52.20
24744;DHT22;12844;52.110;5.548;2023-04-21T15:22:19;19.30;52.20
24744;DHT22;12844;52.110;5.548;2023-04-21T15:24:45;19.30;52.10
24744;DHT22;12844;52.110;5.548;2023-04-21T15:27:10;19.40;52.20
24744;DHT22;12844;52.110;5.548;2023-04-21T15:29:36;19.40;52.20
24744;DHT22;12844;52.110;5.548;2023-04-21T15:32:03;19.40;52.20
24744;DHT22;12844;52.110;5.548;2023-04-21T15:34:28;19.30;52.20
24744;DHT22;12844;52.110;5.548;2023-04-21T15:36:54;19.40;52.20
24744;DHT22;12844;52.110;5.548;2023-04-21T15:39:19;19.30;52.20
24744;DHT22;12844;52.110;5.548;2023-04-21T15:41:45;19.40;52.30
24744;DHT22;12844;52.110;5.548;2023-04-21T15:44:11;19.30;52.20
24744;DHT22;12844;52.110;5.548;2023-04-21T15:46:36;19.40;52.30
24744;DHT22;12844;52.110;5.548;2023-04-21T15:49:02;19.30;52.20
24744;DHT22;12844;52.110;5.548;2023-04-21T15:51:28;19.30;52.30
24744;DHT22;12844;52.110;5.548;2023-04-21T15:53:54;19.30;52.40
24744;DHT22;12844;52.110;5.548;2023-04-21T15:56:19;19.30;52.30
24744;DHT22;12844;52.110;5.548;2023-04-21T15:58:45;19.30;52.30
24744;DHT22;12844;52.110;5.548;2023-04-21T16:01:10;19.30;52.30
24744;DHT22;12844;52.110;5.548;2023-04-21T16:03:36;19.30;52.30
24744;DHT22;12844;52.110;5.548;2023-04-21T16:06:02;19.30;52.30
24744;DHT22;12844;52.110;5.548;2023-04-21T16:08:28;19.30;52.30
24744;DHT22;12844;52.110;5.548;2023-04-21T16:10:53;19.30;52.40
24744;DHT22;12844;52.110;5.548;2023-04-21T16:13:19;19.30;52.30
24744;DHT22;12844;52.110;5.548;2023-04-21T16:15:45;19.30;52.40
24744;DHT22;12844;52.110;5.548;2023-04-21T16:18:10;19.30;52.30
24744;DHT22;12844;52.110;5.548;2023-04-21T16:20:36;19.30;52.30
24744;DHT22;12844;52.110;5.548;2023-04-21T16:23:02;19.30;52.40
24744;DHT22;12844;52.110;5.548;2023-04-21T16:25:29;19.30;52.40
24744;DHT22;12844;52.110;5.548;2023-04-21T16:27:55;19.30;52.40
24744;DHT22;12844;52.110;5.548;2023-04-21T16:30:21;19.30;52.40
24744;DHT22;12844;52.110;5.548;2023-04-21T16:32:46;19.30;52.40
24744;DHT22;12844;52.110;5.548;2023-04-21T16:35:12;19.30;52.40
24744;DHT22;12844;52.110;5.548;2023-04-21T16:37:37;19.30;52.40
24744;DHT22;12844;52.110;5.548;2023-04-21T16:40:05;19.30;52.40
24744;DHT22;12844;52.110;5.548;2023-04-21T16:42:32;19.30;52.40
24744;DHT22;12844;52.110;5.548;2023-04-21T16:44:58;19.30;52.40
24744;DHT22;12844;52.110;5.548;2023-04-21T16:47:28;19.30;52.40
24744;DHT22;12844;52.110;5.548;2023-04-21T16:49:53;19.30;52.40
24744;DHT22;12844;52.110;5.548;2023-04-21T16:52:19;19.30;52.40
24744;DHT22;12844;52.110;5.548;2023-04-21T16:54:44;19.30;52.50
24744;DHT22;12844;52.110;5.548;2023-04-21T16:57:10;19.30;52.50
24744;DHT22;12844;52.110;5.548;2023-04-21T16:59:36;19.30;52.40
24744;DHT22;12844;52.110;5.548;2023-04-21T17:02:01;19.30;52.50
24744;DHT22;12844;52.110;5.548;2023-04-21T17:04:27;19.30;52.50
24744;DHT22;12844;52.110;5.548;2023-04-21T17:06:52;19.20;52.50
24744;DHT22;12844;52.110;5.548;2023-04-21T17:09:18;19.30;52.50
24744;DHT22;12844;52.110;5.548;2023-04-21T17:11:43;19.30;52.50
24744;DHT22;12844;52.110;5.548;2023-04-21T17:14:10;19.30;52.50
24744;DHT22;12844;52.110;5.548;2023-04-21T17:16:37;19.30;52.50
24744;DHT22;12844;52.110;5.548;2023-04-21T17:19:02;19.30;52.50
24744;DHT22;12844;52.110;5.548;2023-04-21T17:21:28;19.30;52.50
24744;DHT22;12844;52.110;5.548;2023-04-21T17:23:53;19.30;52.50
24744;DHT22;12844;52.110;5.548;2023-04-21T17:26:19;19.20;52.50
24744;DHT22;12844;52.110;5.548;2023-04-21T17:28:47;19.20;52.50
24744;DHT22;12844;52.110;5.548;2023-04-21T17:31:13;19.30;52.50
24744;DHT22;12844;52.110;5.548;2023-04-21T17:33:38;19.30;52.50
24744;DHT22;12844;52.110;5.548;2023-04-21T17:36:04;19.30;52.50
24744;DHT22;12844;52.110;5.548;2023-04-21T17:38:30;19.20;52.50
24744;DHT22;12844;52.110;5.548;2023-04-21T17:40:56;19.20;52.50
24744;DHT22;12844;52.110;5.548;2023-04-21T17:43:22;19.20;52.50
24744;DHT22;12844;52.110;5.548;2023-04-21T17:45:48;19.30;52.50
24744;DHT22;12844;52.110;5.548;2023-04-21T17:48:14;19.30;52.50
24744;DHT22;12844;52.110;5.548;2023-04-21T17:50:39;19.20;52.50
24744;DHT22;12844;52.110;5.548;2023-04-21T17:53:05;19.30;52.50
24744;DHT22;12844;52.110;5.548;2023-04-21T17:55:30;19.20;52.50
24744;DHT22;12844;52.110;5.548;2023-04-21T17:57:56;19.20;52.50
24744;DHT22;12844;52.110;5.548;2023-04-21T18:00:22;19.20;52.50
24744;DHT22;12844;52.110;5.548;2023-04-21T18:02:47;19.20;52.50
24744;DHT22;12844;52.110;5.548;2023-04-21T18:05:13;19.20;52.50
24744;DHT22;12844;52.110;5.548;2023-04-21T18:07:40;19.20;52.50
24744;DHT22;12844;52.110;5.548;2023-04-21T18:10:06;19.20;52.50
24744;DHT22;12844;52.110;5.548;2023-04-21T18:12:32;19.20;52.60
24744;DHT22;12844;52.110;5.548;2023-04-21T18:14:58;19.20;52.50
24744;DHT22;12844;52.110;5.548;2023-04-21T18:17:23;19.20;52.50
24744;DHT22;12844;52.110;5.548;2023-04-21T18:19:49;19.20;52.50
24744;DHT22;12844;52.110;5.548;2023-04-21T18:22:14;19.20;52.60
24744;DHT22;12844;52.110;5.548;2023-04-21T18:24:40;19.20;52.70
24744;DHT22;12844;52.110;5.548;2023-04-21T18:27:06;19.10;52.60
24744;DHT22;12844;52.110;5.548;2023-04-21T18:29:31;19.20;52.70
24744;DHT22;12844;52.110;5.548;2023-04-21T18:31:57;19.20;52.70
24744;DHT22;12844;52.110;5.548;2023-04-21T18:34:22;19.20;52.60
24744;DHT22;12844;52.110;5.548;2023-04-21T18:36:48;19.10;52.60
24744;DHT22;12844;52.110;5.548;2023-04-21T18:39:14;19.10;52.60
24744;DHT22;12844;52.110;5.548;2023-04-21T18:41:39;19.10;52.60
24744;DHT22;12844;52.110;5.548;2023-04-21T18:44:05;19.10;52.60
24744;DHT22;12844;52.110;5.548;2023-04-21T18:46:34;19.10;52.60
24744;DHT22;12844;52.110;5.548;2023-04-21T18:48:59;19.10;52.60
24744;DHT22;12844;52.110;5.548;2023-04-21T18:51:26;19.10;52.60
24744;DHT22;12844;52.110;5.548;2023-04-21T18:53:52;19.10;52.50
24744;DHT22;12844;52.110;5.548;2023-04-21T18:56:17;19.10;52.60
24744;DHT22;12844;52.110;5.548;2023-04-21T18:58:43;19.10;52.60
24744;DHT22;12844;52.110;5.548;2023-04-21T19:01:08;19.10;52.60
24744;DHT22;12844;52.110;5.548;2023-04-21T19:03:34;19.00;52.60
24744;DHT22;12844;52.110;5.548;2023-04-21T19:05:59;19.10;52.60
24744;DHT22;12844;52.110;5.548;2023-04-21T19:08:25;19.00;52.60
24744;DHT22;12844;52.110;5.548;2023-04-21T19:10:51;19.10;52.60
24744;DHT22;12844;52.110;5.548;2023-04-21T19:13:16;19.10;52.60
24744;DHT22;12844;52.110;5.548;2023-04-21T19:15:42;19.10;52.60
24744;DHT22;12844;52.110;5.548;2023-04-21T19:18:08;19.00;52.50
24744;DHT22;12844;52.110;5.548;2023-04-21T19:20:34;19.00;52.50
24744;DHT22;12844;52.110;5.548;2023-04-21T19:23:02;19.00;52.60
24744;DHT22;12844;52.110;5.548;2023-04-21T19:25:29;19.00;52.60
24744;DHT22;12844;52.110;5.548;2023-04-21T19:27:55;19.00;52.60
24744;DHT22;12844;52.110;5.548;2023-04-21T19:30:20;19.00;52.60
24744;DHT22;12844;52.110;5.548;2023-04-21T19:32:46;19.00;52.60
24744;DHT22;12844;52.110;5.548;2023-04-21T19:35:12;19.00;52.60
24744;DHT22;12844;52.110;5.548;2023-04-21T19:37:37;19.00;52.60
24744;DHT22;12844;52.110;5.548;2023-04-21T19:40:04;19.00;52.60
24744;DHT22;12844;52.110;5.548;2023-04-21T19:42:30;19.00;52.60
24744;DHT22;12844;52.110;5.548;2023-04-21T19:44:56;19.00;52.60
24744;DHT22;12844;52.110;5.548;2023-04-21T19:47:21;19.00;52.60
24744;DHT22;12844;52.110;5.548;2023-04-21T19:49:47;19.00;52.60
24744;DHT22;12844;52.110;5.548;2023-04-21T19:52:12;19.00;52.50
24744;DHT22;12844;52.110;5.548;2023-04-21T19:54:38;19.00;52.60
24744;DHT22;12844;52.110;5.548;2023-04-21T23:06:05;18.70;52.30
24744;DHT22;12844;52.110;5.548;2023-04-21T23:08:30;18.70;52.30
24744;DHT22;12844;52.110;5.548;2023-04-21T23:10:56;18.70;52.30
24744;DHT22;12844;52.110;5.548;2023-04-21T23:13:21;18.70;52.40
24744;DHT22;12844;52.110;5.548;2023-04-21T23:15:47;18.70;52.40
24744;DHT22;12844;52.110;5.548;2023-04-21T23:18:12;18.60;52.40
24744;DHT22;12844;52.110;5.548;2023-04-21T23:20:38;18.70;52.40
24744;DHT22;12844;52.110;5.548;2023-04-21T23:23:04;18.70;52.40
24744;DHT22;12844;52.110;5.548;2023-04-21T23:25:29;18.60;52.40
24744;DHT22;12844;52.110;5.548;2023-04-21T23:27:55;18.60;52.40
24744;DHT22;12844;52.110;5.548;2023-04-21T23:30:20;18.60;52.30
24744;DHT22;12844;52.110;5.548;2023-04-21T23:32:46;18.60;52.40
24744;DHT22;12844;52.110;5.548;2023-04-21T23:35:12;18.60;52.40
24744;DHT22;12844;52.110;5.548;2023-04-21T23:37:37;18.60;52.40
24744;DHT22;12844;52.110;5.548;2023-04-21T23:40:03;18.60;52.40
24744;DHT22;12844;52.110;5.548;2023-04-21T23:42:34;18.60;52.40
24744;DHT22;12844;52.110;5.548;2023-04-21T23:44:59;18.60;52.40
24744;DHT22;12844;52.110;5.548;2023-04-21T23:47:26;18.60;52.40
24744;DHT22;12844;52.110;5.548;2023-04-21T23:49:52;18.60;52.40
24744;DHT22;12844;52.110;5.548;2023-04-21T23:52:17;18.60;52.40
24744;DHT22;12844;52.110;5.548;2023-04-21T23:54:43;18.60;52.40
24744;DHT22;12844;52.110;5.548;2023-04-21T23:57:08;18.60;52.40
24744;DHT22;12844;52.110;5.548;2023-04-21T23:59:34;18.60;52.40
